Main page
METAR-TAF:

METAR-TAF

Airports :

Brooks Field

Marshall, Michigan, United States

latitude: 42-15-04N, longitude: 084-57-20W, elevation: 941 ft

Current weather observation

The report was made 13 minutes ago, at 01:35 UTC
Wind 13 mph from the West
Temperature 48°F
Humidity 61%
Pressure 29.82 in. Hg
Visibility: 10 miles
Clear sky

METAR: KRMY 130135Z AUTO 28011KT 10SM CLR 09/02 A2982 RMK AO2 T00860017

Time: 21:48 (01:48 UTC)


TAF: missing

Weather observations and forecasts of more than 4000 airports (METAR and TAF reports).

The available stations are represented by yellow and red dots on the map.

Hover mouse over dot to see the name of the station.

Then click to see weather observations and forecasts.

To change the map : click on the green buttons with a black cross to zoom in, on the green button with a dash to zoom out, or on the green arrows for adjacent maps.


METAR-TAF: